This is the latest recevied weather packets stored in our database for station/object SV2BZQ-2. If no packets are shown the sender has not sent any weather packets the latest 10 day(s).
| Time | Temp. | Humidity | Pressure | Rain* | Wind** | Luminosity | Snow |
|---|---|---|---|---|---|---|---|
| 1777568672 | 9.44° C | 90% | 1015.6 hPa | 0.51 mm | - | 5 W/m² | - |
| 1777567166 | 9.44° C | 91% | 1015.5 hPa | 0.76 mm | - | 9 W/m² | - |
| 1777566712 | 9.44° C | 91% | 1015.3 hPa | 1.02 mm | - | 12 W/m² | - |
| 1777564876 | 9.44° C | 90% | 1015 hPa | 1.78 mm | - | 25 W/m² | - |
| 1777562616 | 10° C | 89% | 1015.1 hPa | 1.78 mm | - | 21 W/m² | - |
| 1777561660 | 10.56° C | 87% | 1015.3 hPa | 1.27 mm | - | 21 W/m² | - |
| 1777558938 | 12.78° C | 74% | 1014.4 hPa | 0 mm | - | 19 W/m² | - |
| 1777555664 | 16.67° C | 68% | 1013.3 hPa | 0 mm | - | 202 W/m² | - |
| 1777552312 | 18.33° C | 65% | 1013.3 hPa | 0 mm | - | 315 W/m² | - |
| 1777551412 | 19.44° C | 63% | 1013.2 hPa | 0 mm | - | 475 W/m² | - |
| 1777550500 | 20.56° C | 61% | 1013.4 hPa | 0 mm | - | 367 W/m² | - |
| 1777550207 | 20.56° C | 62% | 1013.1 hPa | 0 mm | - | 666 W/m² | - |
| 1777545931 | 20° C | 69% | 1014.7 hPa | 0 mm | - | 677 W/m² | - |
| 1777545834 | 20° C | 68% | 1014.9 hPa | 0 mm | - | 622 W/m² | - |
| 1777545376 | 23.89° C | 47% | 1013.4 hPa | 0 mm | - | 854 W/m² | - |
| 1777545084 | 13.33° C | 91% | 1014.8 hPa | 0 mm | - | 197 W/m² | - |
| 1777545069 | 23.89° C | 46% | 1013.3 hPa | 0 mm | - | 856 W/m² | - |
| 1777544021 | 13.33° C | 88% | 1014.5 hPa | 0 mm | - | 0 W/m² | - |
| 1777543422 | 23.89° C | 46% | 1013.5 hPa | 0 mm | - | 861 W/m² | - |
| 1777543199 | 23.89° C | 48% | 1013.6 hPa | 0 mm | - | 853 W/m² | - |
| 1777543004 | 23.89° C | 49% | 1013.7 hPa | 0 mm | - | 858 W/m² | - |
| 1777542481 | 22.78° C | 60% | 1013.9 hPa | 0 mm | - | 844 W/m² | - |
| 1777540664 | 21.11° C | 66% | 1014.3 hPa | 0 mm | - | 846 W/m² | - |
| 1777539064 | 20° C | 70% | 1014.5 hPa | 0 mm | - | 763 W/m² | - |
| 1777537418 | 20° C | 70% | 1014.6 hPa | 0 mm | - | 686 W/m² | - |
* Rain latest hour (hover to see other rain measurements)
** Current wind speed in m/s (hover to see current wind gust speed)